createdAt,value
2022-08-08T00:00:54.585Z,0.85
2022-08-08T00:03:31.736Z,1.25
2022-08-08T00:06:28.549Z,2.00
2022-08-08T00:09:34.169Z,1.48
2022-08-08T00:12:10.480Z,2.10
2022-08-08T00:15:01.013Z,0.93
2022-08-08T00:18:01.951Z,1.60
2022-08-08T00:20:42.625Z,1.70
2022-08-08T00:25:50.772Z,2.63
2022-08-08T00:28:34.133Z,1.17
2022-08-08T00:32:20.087Z,1.80
2022-08-08T00:34:51.565Z,2.28
2022-08-08T00:37:47.211Z,1.67
2022-08-08T00:41:14.439Z,2.22
2022-08-08T00:44:00.728Z,1.67
2022-08-08T00:46:57.336Z,1.67
2022-08-08T00:49:59.005Z,2.20
2022-08-08T00:52:54.015Z,2.65
2022-08-08T00:55:53.366Z,0.52
2022-08-08T00:59:03.923Z,1.77
2022-08-08T01:02:05.159Z,2.08
2022-08-08T01:05:08.906Z,2.03
2022-08-08T01:07:55.310Z,1.00
2022-08-08T01:10:26.328Z,1.17
2022-08-08T01:13:38.085Z,2.05
2022-08-08T01:16:47.812Z,1.20
2022-08-08T01:20:02.175Z,1.73
2022-08-08T01:22:41.821Z,1.00
2022-08-08T01:25:47.437Z,1.45
2022-08-08T01:28:59.708Z,1.20
2022-08-08T01:32:12.751Z,1.23
2022-08-08T01:37:57.130Z,1.35
2022-08-08T01:40:47.766Z,1.30
2022-08-08T01:43:26.060Z,1.63
2022-08-08T01:46:35.622Z,0.90
2022-08-08T01:49:22.942Z,2.92
2022-08-08T01:54:04.328Z,1.40
2022-08-08T01:58:15.807Z,1.23
2022-08-08T02:01:05.403Z,1.60
2022-08-08T02:03:59.113Z,1.98
2022-08-08T02:06:58.322Z,1.35
2022-08-08T02:10:01.479Z,1.40
2022-08-08T02:12:48.335Z,1.52
2022-08-08T02:15:38.586Z,2.65
2022-08-08T02:18:20.440Z,1.58
2022-08-08T02:21:18.033Z,2.25
2022-08-08T02:24:09.751Z,2.95
2022-08-08T02:26:58.060Z,1.27
2022-08-08T02:29:53.479Z,0.68
2022-08-08T02:32:26.400Z,1.50
2022-08-08T02:35:12.075Z,0.82
2022-08-08T02:38:15.722Z,2.38
2022-08-08T02:42:03.669Z,1.95
2022-08-08T02:44:45.111Z,0.98
2022-08-08T02:47:46.898Z,2.03
2022-08-08T02:50:56.365Z,1.45
2022-08-08T02:54:07.933Z,1.15
2022-08-08T02:57:17.255Z,1.38
2022-08-08T03:00:31.813Z,2.33
2022-08-08T03:05:01.244Z,0.82
2022-08-08T03:07:06.981Z,2.15
2022-08-08T03:09:51.753Z,0.80
2022-08-08T03:12:36.249Z,1.08
2022-08-08T03:16:02.364Z,1.70
2022-08-08T03:18:33.505Z,1.35
2022-08-08T03:21:01.722Z,2.85
2022-08-08T03:23:56.232Z,0.77
2022-08-08T03:26:31.082Z,3.25
2022-08-08T03:29:04.375Z,2.47
2022-08-08T03:32:05.945Z,1.15
2022-08-08T03:34:34.412Z,2.67
2022-08-08T03:37:00.987Z,5.10
2022-08-08T03:39:39.323Z,2.25
2022-08-08T03:42:30.631Z,2.40
2022-08-08T03:44:57.622Z,1.40
2022-08-08T03:47:25.831Z,1.65
2022-08-08T03:50:20.230Z,2.08
2022-08-08T03:52:51.833Z,1.40
2022-08-08T03:55:56.424Z,3.85
2022-08-08T03:58:35.070Z,1.95
2022-08-08T04:01:02.049Z,0.75
2022-08-08T04:03:58.104Z,1.08
2022-08-08T04:06:22.515Z,4.88
2022-08-08T04:08:49.522Z,1.17
2022-08-08T04:11:17.724Z,2.10
2022-08-08T04:14:03.421Z,3.80
2022-08-08T04:16:38.439Z,1.23
2022-08-08T04:19:23.882Z,1.52
2022-08-08T04:24:23.304Z,1.40
2022-08-08T04:26:58.131Z,0.80
2022-08-08T04:29:37.138Z,1.40
2022-08-08T04:32:08.206Z,3.45
2022-08-08T04:34:42.812Z,2.75
2022-08-08T04:37:31.817Z,3.78
2022-08-08T04:40:06.068Z,3.30
2022-08-08T04:42:34.123Z,4.70
2022-08-08T04:45:04.349Z,6.85
2022-08-08T04:47:30.932Z,18.85
2022-08-08T04:49:59.180Z,5.78
2022-08-08T04:52:34.359Z,18.45
2022-08-08T04:55:02.477Z,2.58
2022-08-08T04:57:31.300Z,3.85
2022-08-08T05:00:00.764Z,1.88
2022-08-08T05:02:28.907Z,3.55
2022-08-08T05:04:59.465Z,6.78
2022-08-08T05:07:38.069Z,2.20
2022-08-08T05:10:12.856Z,4.43
2022-08-08T05:12:42.872Z,2.08
2022-08-08T05:16:47.872Z,1.95
2022-08-08T05:18:13.195Z,5.82
2022-08-08T05:20:49.896Z,3.35
2022-08-08T05:23:17.195Z,1.73
2022-08-08T05:25:43.644Z,1.05
2022-08-08T05:28:13.218Z,1.08
2022-08-08T05:30:47.241Z,1.80
2022-08-08T05:33:14.420Z,1.95
2022-08-08T05:35:44.518Z,2.65
2022-08-08T05:38:31.814Z,2.53
2022-08-08T05:41:03.002Z,3.65
2022-08-08T05:43:39.353Z,3.35
2022-08-08T05:46:08.573Z,3.38
2022-08-08T05:48:36.264Z,2.40
2022-08-08T05:51:12.858Z,3.90
2022-08-08T05:54:24.430Z,1.83
2022-08-08T05:56:30.395Z,8.80
2022-08-08T05:59:05.173Z,3.83
2022-08-08T06:01:52.721Z,4.28
2022-08-08T06:04:26.601Z,20.33
2022-08-08T06:06:56.555Z,4.40
2022-08-08T06:09:58.857Z,4.53
2022-08-08T06:12:30.052Z,2.13
2022-08-08T06:15:03.011Z,2.33
2022-08-08T06:17:51.035Z,3.22
2022-08-08T06:20:20.739Z,2.45
2022-08-08T06:22:49.512Z,1.85
2022-08-08T06:25:18.178Z,2.72
2022-08-08T06:27:48.916Z,1.50
2022-08-08T06:30:26.088Z,7.55
2022-08-08T06:33:01.192Z,2.30
2022-08-08T06:36:06.837Z,2.03
2022-08-08T06:38:21.655Z,5.07
2022-08-08T06:41:05.510Z,4.35
2022-08-08T06:43:36.031Z,1.65
2022-08-08T06:46:08.965Z,2.55
2022-08-08T06:48:38.316Z,4.10
2022-08-08T06:51:08.332Z,2.80
2022-08-08T06:53:39.431Z,4.20
2022-08-08T06:56:07.255Z,2.22
2022-08-08T06:58:34.117Z,3.30
2022-08-08T07:01:24.667Z,5.43
2022-08-08T07:04:37.356Z,8.73
2022-08-08T07:06:54.722Z,3.35
2022-08-08T07:09:27.301Z,2.08
2022-08-08T07:12:25.585Z,3.15
2022-08-08T07:15:31.722Z,1.73
2022-08-08T07:18:35.668Z,3.80
2022-08-08T07:20:54.230Z,1.83
2022-08-08T07:23:57.565Z,2.65
2022-08-08T07:26:31.770Z,2.95
2022-08-08T07:29:05.802Z,2.70
2022-08-08T07:31:35.983Z,2.38
2022-08-08T07:34:04.270Z,2.17
2022-08-08T07:36:48.205Z,3.65
2022-08-08T07:39:29.707Z,4.00
2022-08-08T07:42:13.396Z,5.60
2022-08-08T07:44:47.342Z,5.60
2022-08-08T07:47:13.778Z,8.27
2022-08-08T07:49:40.504Z,4.50
2022-08-08T07:52:13.371Z,5.05
2022-08-08T07:55:01.658Z,2.80
2022-08-08T07:57:48.570Z,2.05
2022-08-08T08:00:17.189Z,4.07
2022-08-08T08:02:59.852Z,2.38
2022-08-08T08:05:33.671Z,4.53
2022-08-08T08:08:10.083Z,2.92
2022-08-08T08:10:38.425Z,1.55
2022-08-08T08:13:42.958Z,2.95
2022-08-08T08:16:18.635Z,1.60
2022-08-08T08:21:35.320Z,1.48
2022-08-08T08:24:12.611Z,3.35
2022-08-08T08:26:39.388Z,1.63
2022-08-08T08:29:13.824Z,1.30
2022-08-08T08:31:43.043Z,1.55
2022-08-08T08:34:09.722Z,5.65
2022-08-08T08:36:37.209Z,4.20
2022-08-08T08:39:07.597Z,2.25
2022-08-08T08:41:48.616Z,3.90
2022-08-08T08:44:16.581Z,1.70
2022-08-08T08:46:47.323Z,1.45
2022-08-08T08:49:17.610Z,2.88
2022-08-08T08:51:51.634Z,2.50
2022-08-08T08:54:25.205Z,1.55
2022-08-08T08:56:52.946Z,1.60
2022-08-08T08:59:30.578Z,2.13
2022-08-08T09:02:20.654Z,1.73
2022-08-08T09:04:52.591Z,0.75
2022-08-08T09:07:23.874Z,1.85
2022-08-08T09:10:09.963Z,1.42
2022-08-08T09:12:42.870Z,1.40
2022-08-08T09:15:13.224Z,2.08
2022-08-08T09:17:41.589Z,3.67
2022-08-08T09:21:58.681Z,1.40
2022-08-08T09:23:10.481Z,3.13
2022-08-08T09:25:54.863Z,2.63
2022-08-08T09:28:38.628Z,1.63
2022-08-08T09:31:42.291Z,1.17
2022-08-08T09:34:31.299Z,1.20
2022-08-08T09:37:29.291Z,1.70
2022-08-08T09:40:04.391Z,2.00
2022-08-08T09:42:51.824Z,1.13
2022-08-08T09:46:01.918Z,2.10
2022-08-08T09:48:22.783Z,2.35
2022-08-08T09:50:57.259Z,2.20
2022-08-08T09:54:01.189Z,2.53
2022-08-08T09:56:22.049Z,4.53
2022-08-08T09:59:32.017Z,3.33
2022-08-08T10:01:59.338Z,1.67
2022-08-08T10:04:41.741Z,1.67
2022-08-08T10:07:13.880Z,1.85
2022-08-08T10:10:00.729Z,1.35
2022-08-08T10:12:37.902Z,0.82
2022-08-08T10:15:20.959Z,2.45
2022-08-08T10:18:07.458Z,2.20
2022-08-08T10:20:57.685Z,1.10
2022-08-08T10:23:44.197Z,1.90
2022-08-08T10:26:25.809Z,0.95
2022-08-08T10:29:22.746Z,1.67
2022-08-08T10:32:16.083Z,2.45
2022-08-08T10:35:00.348Z,1.27
2022-08-08T10:37:30.925Z,3.08
2022-08-08T10:39:59.162Z,1.38
2022-08-08T10:42:34.613Z,1.77
2022-08-08T10:45:07.978Z,1.60
2022-08-08T10:47:43.588Z,1.75
2022-08-08T10:50:15.635Z,1.42
2022-08-08T10:52:43.187Z,2.30
2022-08-08T10:55:39.791Z,0.77
2022-08-08T10:58:08.106Z,1.70
2022-08-08T11:00:48.361Z,2.75
2022-08-08T11:03:19.226Z,1.92
2022-08-08T11:06:06.441Z,2.33
2022-08-08T11:08:42.967Z,1.50
2022-08-08T11:11:32.393Z,1.38
2022-08-08T11:14:02.951Z,1.88
2022-08-08T11:16:33.457Z,2.85
2022-08-08T11:19:02.673Z,1.50
2022-08-08T11:21:37.758Z,2.55
2022-08-08T11:24:05.912Z,1.67
2022-08-08T11:26:38.170Z,2.75
2022-08-08T11:29:21.731Z,1.55
2022-08-08T11:31:51.671Z,1.63
2022-08-08T11:34:25.710Z,3.10
2022-08-08T11:37:15.058Z,8.82
2022-08-08T11:39:42.596Z,14.32
2022-08-08T11:42:31.123Z,22.23
2022-08-08T11:44:58.787Z,21.83
2022-08-08T11:47:39.372Z,19.17
2022-08-08T11:50:12.919Z,16.55
2022-08-08T11:52:47.306Z,16.98
2022-08-08T11:55:28.664Z,18.33
2022-08-08T11:58:14.439Z,16.38
2022-08-08T12:00:50.255Z,16.58
2022-08-08T12:03:21.631Z,18.67
2022-08-08T12:05:48.859Z,18.95
2022-08-08T12:08:17.064Z,16.75
2022-08-08T12:10:51.321Z,19.00
2022-08-08T12:13:38.071Z,18.63
2022-08-08T12:16:17.933Z,16.83
2022-08-08T12:18:45.225Z,16.52
2022-08-08T12:21:59.938Z,17.45
2022-08-08T12:24:27.679Z,15.75
2022-08-08T12:26:54.893Z,13.82
2022-08-08T12:29:40.209Z,14.18
2022-08-08T12:32:13.638Z,12.68
2022-08-08T12:34:57.553Z,12.38
2022-08-08T12:37:40.949Z,11.60
2022-08-08T12:40:22.569Z,11.05
2022-08-08T12:42:50.137Z,10.73
2022-08-08T12:45:53.508Z,10.30
2022-08-08T12:48:10.134Z,9.90
2022-08-08T12:50:58.642Z,9.50
2022-08-08T12:53:37.885Z,10.25
2022-08-08T12:56:19.486Z,8.50
2022-08-08T12:58:54.148Z,8.13
2022-08-08T13:01:24.391Z,8.25
2022-08-08T13:03:52.011Z,6.85
2022-08-08T13:06:20.161Z,8.10
2022-08-08T13:08:53.201Z,7.07
2022-08-08T13:12:27.857Z,7.22
2022-08-08T13:14:19.246Z,6.60
2022-08-08T13:16:49.107Z,6.28
2022-08-08T13:19:17.817Z,5.25
2022-08-08T13:21:53.110Z,5.10
2022-08-08T13:24:42.567Z,4.75
2022-08-08T13:27:14.904Z,4.93
2022-08-08T13:29:53.025Z,4.60
2022-08-08T13:32:25.284Z,3.50
2022-08-08T13:34:57.335Z,3.58
2022-08-08T13:38:05.157Z,3.50
2022-08-08T13:40:17.770Z,4.88
2022-08-08T13:42:54.065Z,3.33
2022-08-08T13:45:23.886Z,2.47
2022-08-08T13:48:01.600Z,2.63
2022-08-08T13:50:38.802Z,1.98
2022-08-08T13:53:24.440Z,2.60
2022-08-08T13:56:02.439Z,1.73
2022-08-08T13:58:30.056Z,2.55
2022-08-08T14:00:56.831Z,2.00
2022-08-08T14:03:53.107Z,1.52
2022-08-08T14:06:32.101Z,3.17
2022-08-08T14:09:00.418Z,1.05
2022-08-08T14:11:47.816Z,3.55
2022-08-08T14:14:20.513Z,1.23
2022-08-08T14:16:51.986Z,1.20
2022-08-08T14:19:29.724Z,1.23
2022-08-08T14:22:23.177Z,3.22
2022-08-08T14:24:58.762Z,1.10
2022-08-08T14:27:37.688Z,0.88
2022-08-08T14:30:17.776Z,1.77
2022-08-08T14:32:52.956Z,1.05
2022-08-08T14:35:22.358Z,2.65
2022-08-08T14:38:00.324Z,2.47
2022-08-08T14:40:29.705Z,1.27
2022-08-08T14:43:01.342Z,3.38
2022-08-08T14:45:46.877Z,3.75
2022-08-08T14:48:27.273Z,4.38
2022-08-08T14:53:55.542Z,2.55
2022-08-08T14:56:25.186Z,3.30
2022-08-08T14:58:52.411Z,5.05
2022-08-08T15:01:41.036Z,1.58
2022-08-08T15:04:09.554Z,3.20
2022-08-08T15:06:36.279Z,4.10
2022-08-08T15:09:04.408Z,4.90
2022-08-08T15:11:36.481Z,1.85
2022-08-08T15:14:13.660Z,1.85
2022-08-08T15:16:42.634Z,2.50
2022-08-08T15:19:11.275Z,1.50
2022-08-08T15:21:42.998Z,2.53
2022-08-08T15:24:14.021Z,3.88
2022-08-08T15:26:41.687Z,14.93
2022-08-08T15:29:08.303Z,10.32
2022-08-08T15:32:17.480Z,9.60
2022-08-08T15:34:29.828Z,6.75
2022-08-08T15:37:01.880Z,3.28
2022-08-08T15:39:31.609Z,9.90
2022-08-08T15:42:06.835Z,10.35
2022-08-08T15:44:37.513Z,9.30
2022-08-08T15:47:07.151Z,14.80
2022-08-08T15:49:44.074Z,7.68
2022-08-08T15:52:13.813Z,7.15
2022-08-08T15:54:41.501Z,9.73
2022-08-08T15:57:09.771Z,6.80
2022-08-08T16:00:12.066Z,4.03
2022-08-08T16:02:30.812Z,6.28
2022-08-08T16:05:01.558Z,6.80
2022-08-08T16:07:39.268Z,3.50
2022-08-08T16:13:11.834Z,7.32
2022-08-08T16:13:20.669Z,6.45
2022-08-08T16:15:59.082Z,5.28
2022-08-08T16:18:30.260Z,5.80
2022-08-08T16:21:00.523Z,4.93
2022-08-08T16:23:32.190Z,2.78
2022-08-08T16:26:04.223Z,5.22
2022-08-08T16:28:35.331Z,2.85
2022-08-08T16:31:06.284Z,2.30
2022-08-08T16:33:38.601Z,4.22
2022-08-08T16:36:12.882Z,4.50
2022-08-08T16:38:45.007Z,3.17
2022-08-08T16:41:19.987Z,2.40
2022-08-08T16:43:49.080Z,1.98
2022-08-08T16:46:42.819Z,2.97
2022-08-08T16:49:05.358Z,3.45
2022-08-08T16:55:00.270Z,1.33
2022-08-08T16:55:06.465Z,2.55
2022-08-08T16:57:19.774Z,6.78
2022-08-08T16:59:52.243Z,1.67
2022-08-08T17:02:32.839Z,1.83
2022-08-08T17:05:06.587Z,1.40
2022-08-08T17:07:33.083Z,2.15
2022-08-08T17:10:04.694Z,1.20
2022-08-08T17:12:34.098Z,5.57
2022-08-08T17:15:17.949Z,2.03
2022-08-08T17:18:03.491Z,1.92
2022-08-08T17:20:40.031Z,4.78
2022-08-08T17:23:18.410Z,2.13
2022-08-08T17:25:54.439Z,2.33
2022-08-08T17:28:33.927Z,3.88
2022-08-08T17:31:02.820Z,1.95
2022-08-08T17:34:37.498Z,2.85
2022-08-08T17:36:36.034Z,4.63
2022-08-08T17:39:04.993Z,1.63
2022-08-08T17:41:49.630Z,5.85
2022-08-08T17:44:26.901Z,1.52
2022-08-08T17:46:55.555Z,3.90
2022-08-08T17:49:28.691Z,6.93
2022-08-08T17:52:05.448Z,1.70
2022-08-08T17:54:33.555Z,3.20
2022-08-08T17:57:01.111Z,1.70
2022-08-08T17:59:36.246Z,0.90
2022-08-08T18:02:16.118Z,6.32
2022-08-08T18:04:49.496Z,1.35
2022-08-08T18:08:01.728Z,0.45
2022-08-08T18:10:04.609Z,0.35
2022-08-08T18:12:31.099Z,5.07
2022-08-08T18:14:57.649Z,0.98
2022-08-08T18:18:05.362Z,0.65
2022-08-08T18:20:43.248Z,1.50
2022-08-08T18:22:59.852Z,0.68
2022-08-08T18:25:26.306Z,1.33
2022-08-08T18:28:03.880Z,0.60
2022-08-08T18:30:30.325Z,0.30
2022-08-08T18:32:58.647Z,1.20
2022-08-08T18:35:25.213Z,2.60
2022-08-08T18:38:03.629Z,0.28
2022-08-08T18:40:35.383Z,2.28
2022-08-08T18:43:02.647Z,0.80
2022-08-08T18:46:00.626Z,0.38
2022-08-08T18:48:29.439Z,0.22
2022-08-08T18:50:58.503Z,0.65
2022-08-08T18:54:00.113Z,0.88
2022-08-08T18:56:24.924Z,0.20
2022-08-08T18:58:53.503Z,0.43
2022-08-08T19:02:26.437Z,0.22
2022-08-08T19:04:10.802Z,0.88
2022-08-08T19:06:46.973Z,0.25
2022-08-08T19:09:16.072Z,0.38
2022-08-08T19:11:46.212Z,0.47
2022-08-08T19:14:20.284Z,0.60
2022-08-08T19:19:15.422Z,1.50
2022-08-08T19:21:49.515Z,0.47
2022-08-08T19:24:38.050Z,0.47
2022-08-08T19:27:06.550Z,0.40
2022-08-08T19:29:35.832Z,0.20
2022-08-08T19:32:12.943Z,1.67
2022-08-08T19:34:47.791Z,1.08
2022-08-08T19:37:16.582Z,3.70
2022-08-08T19:39:43.540Z,5.35
2022-08-08T19:42:13.543Z,1.15
2022-08-08T19:44:42.829Z,4.75
2022-08-08T19:47:12.378Z,0.50
2022-08-08T19:49:39.064Z,0.63
2022-08-08T19:52:07.242Z,0.22
2022-08-08T19:54:37.035Z,0.50
2022-08-08T19:57:04.255Z,1.85
2022-08-08T19:59:34.889Z,0.50
2022-08-08T20:02:05.106Z,0.57
2022-08-08T20:04:35.523Z,2.53
2022-08-08T20:08:27.020Z,0.13
2022-08-08T20:09:56.195Z,0.43
2022-08-08T20:12:32.088Z,1.08
2022-08-08T20:15:02.449Z,1.58
2022-08-08T20:17:41.978Z,0.60
2022-08-08T20:20:11.152Z,0.52
2022-08-08T20:22:40.458Z,5.57
2022-08-08T20:25:14.114Z,1.00
2022-08-08T20:27:49.319Z,2.42
2022-08-08T20:30:52.329Z,0.52
2022-08-08T20:33:08.075Z,0.68
2022-08-08T20:35:58.149Z,2.33
2022-08-08T20:38:29.140Z,0.40
2022-08-08T20:41:00.400Z,6.07
2022-08-08T20:43:43.873Z,1.40
2022-08-08T20:46:13.402Z,0.73
2022-08-08T20:48:39.871Z,1.58
2022-08-08T20:51:07.885Z,2.15
2022-08-08T20:53:59.937Z,2.55
2022-08-08T20:56:35.594Z,0.88
2022-08-08T20:59:09.478Z,1.17
2022-08-08T21:02:05.992Z,0.55
2022-08-08T21:04:23.484Z,0.20
2022-08-08T21:06:54.066Z,2.17
2022-08-08T21:09:21.839Z,0.93
2022-08-08T21:11:51.248Z,5.18
2022-08-08T21:14:30.450Z,0.45
2022-08-08T21:17:03.232Z,1.60
2022-08-08T21:19:44.529Z,0.80
2022-08-08T21:22:13.921Z,0.55
2022-08-08T21:24:41.767Z,1.33
2022-08-08T21:28:05.054Z,0.63
2022-08-08T21:30:10.815Z,3.60
2022-08-08T21:32:44.783Z,0.65
2022-08-08T21:36:13.911Z,2.13
2022-08-08T21:38:04.136Z,1.48
2022-08-08T21:40:32.323Z,4.57
2022-08-08T21:42:59.261Z,4.90
2022-08-08T21:47:59.373Z,1.48
2022-08-08T21:48:21.745Z,1.70
2022-08-08T21:50:50.698Z,4.60
2022-08-08T21:54:22.739Z,1.25
2022-08-08T21:56:29.494Z,1.50
2022-08-08T21:58:55.479Z,0.93
2022-08-08T22:01:38.828Z,1.23
2022-08-08T22:04:07.284Z,0.30
2022-08-08T22:06:38.036Z,1.50
2022-08-08T22:09:09.598Z,0.22
2022-08-08T22:12:02.669Z,3.45
2022-08-08T22:14:26.434Z,1.02
2022-08-08T22:16:53.995Z,1.13
2022-08-08T22:19:23.996Z,1.10
2022-08-08T22:21:51.867Z,0.47
2022-08-08T22:24:28.409Z,1.92
2022-08-08T22:27:01.176Z,0.57
2022-08-08T22:30:01.983Z,0.30
2022-08-08T22:32:15.892Z,2.10
2022-08-08T22:34:45.192Z,3.15
2022-08-08T22:37:48.988Z,0.57
2022-08-08T22:40:07.657Z,0.52
2022-08-08T22:42:43.200Z,0.57
2022-08-08T22:45:13.737Z,0.47
2022-08-08T22:47:46.721Z,1.35
2022-08-08T22:50:26.836Z,2.25
2022-08-08T22:54:30.569Z,0.80
2022-08-08T22:55:56.042Z,0.95
2022-08-08T22:58:28.765Z,0.82
2022-08-08T23:00:59.837Z,2.95
2022-08-08T23:03:52.708Z,1.45
2022-08-08T23:06:15.787Z,0.85
2022-08-08T23:08:44.621Z,0.63
2022-08-08T23:11:31.010Z,0.10
2022-08-08T23:14:11.659Z,1.02
2022-08-08T23:16:43.946Z,1.45
2022-08-08T23:19:15.306Z,0.88
2022-08-08T23:21:42.305Z,0.32
2022-08-08T23:24:09.206Z,0.68
2022-08-08T23:26:35.763Z,0.10
2022-08-08T23:29:04.451Z,0.38
2022-08-08T23:31:38.630Z,0.30
2022-08-08T23:34:18.711Z,0.57
2022-08-08T23:36:46.447Z,1.85
2022-08-08T23:39:13.358Z,1.17
2022-08-08T23:41:45.898Z,0.17
2022-08-08T23:44:14.001Z,1.15
2022-08-08T23:49:00.270Z,0.55
2022-08-08T23:49:27.377Z,0.93
2022-08-08T23:52:04.338Z,1.00
2022-08-08T23:54:43.849Z,0.20
2022-08-08T23:57:27.441Z,0.15
